createdAt,value
2022-11-02T00:01:23.285Z,15.82
2022-11-02T00:03:55.592Z,15.79
2022-11-02T00:06:27.865Z,15.78
2022-11-02T00:09:00.047Z,15.79
2022-11-02T00:11:32.289Z,15.77
2022-11-02T00:14:04.584Z,15.75
2022-11-02T00:16:36.921Z,15.75
2022-11-02T00:19:09.756Z,15.74
2022-11-02T00:21:42.130Z,15.69
2022-11-02T00:24:12.759Z,15.69
2022-11-02T00:26:44.923Z,15.61
2022-11-02T00:29:17.109Z,15.59
2022-11-02T00:31:49.296Z,15.55
2022-11-02T00:34:21.426Z,15.52
2022-11-02T00:36:55.611Z,15.52
2022-11-02T00:39:28.000Z,15.53
2022-11-02T00:42:00.162Z,15.50
2022-11-02T00:44:32.256Z,15.48
2022-11-02T00:47:04.515Z,15.48
2022-11-02T00:49:36.654Z,15.48
2022-11-02T00:52:09.295Z,15.52
2022-11-02T00:54:41.433Z,15.55
2022-11-02T00:57:13.536Z,15.56
2022-11-02T00:59:45.716Z,15.57
2022-11-02T01:02:18.157Z,15.58
2022-11-02T01:04:50.489Z,15.61
2022-11-02T01:07:22.731Z,15.64
2022-11-02T01:09:55.080Z,15.68
2022-11-02T01:12:27.497Z,15.68
2022-11-02T01:14:59.664Z,15.66
2022-11-02T01:17:31.888Z,15.66
2022-11-02T01:20:04.459Z,15.69
2022-11-02T01:22:37.081Z,15.71
2022-11-02T01:25:08.052Z,15.67
2022-11-02T01:27:40.193Z,15.62
2022-11-02T01:30:14.393Z,15.62
2022-11-02T01:32:46.908Z,15.61
2022-11-02T01:35:19.251Z,15.63
2022-11-02T01:37:51.363Z,15.69
2022-11-02T01:40:23.532Z,15.75
2022-11-02T01:42:55.680Z,15.79
2022-11-02T01:45:27.933Z,15.80
2022-11-02T01:48:00.436Z,15.80
2022-11-02T01:50:31.166Z,15.76
2022-11-02T01:53:03.353Z,15.65
2022-11-02T01:55:36.536Z,15.62
2022-11-02T01:58:11.508Z,15.55
2022-11-02T02:00:43.721Z,15.47
2022-11-02T02:03:18.338Z,15.38
2022-11-02T02:05:55.043Z,15.30
2022-11-02T02:08:28.112Z,15.32
2022-11-02T02:11:00.874Z,15.33
2022-11-02T02:13:33.279Z,15.34
2022-11-02T02:16:10.786Z,15.36
2022-11-02T02:18:47.073Z,15.38
2022-11-02T02:21:26.719Z,15.32
2022-11-02T02:24:19.475Z,15.29
2022-11-02T02:27:09.164Z,15.25
2022-11-02T02:29:49.942Z,15.17
2022-11-02T02:32:29.363Z,15.10
2022-11-02T02:35:05.728Z,15.04
2022-11-02T02:37:41.332Z,15.02
2022-11-02T02:40:17.231Z,14.99
2022-11-02T02:42:52.291Z,14.97
2022-11-02T02:45:27.828Z,14.95
2022-11-02T02:48:03.741Z,14.94
2022-11-02T02:50:38.975Z,14.93
2022-11-02T02:53:11.319Z,14.93
2022-11-02T02:55:43.683Z,14.87
2022-11-02T02:58:19.848Z,14.80
2022-11-02T03:00:53.179Z,14.78
2022-11-02T03:03:27.142Z,14.74
2022-11-02T03:06:11.549Z,14.69
2022-11-02T03:08:48.427Z,14.66
2022-11-02T03:11:22.132Z,14.60
2022-11-02T03:14:05.447Z,14.59
2022-11-02T03:17:04.231Z,14.58
2022-11-02T03:19:43.044Z,14.56
2022-11-02T03:22:24.155Z,14.53
2022-11-02T03:25:01.831Z,14.55
2022-11-02T03:27:40.964Z,14.58
2022-11-02T03:30:16.511Z,14.62
2022-11-02T03:32:52.224Z,14.60
2022-11-02T03:35:26.538Z,14.59
2022-11-02T03:38:02.428Z,14.62
2022-11-02T03:40:37.171Z,14.57
2022-11-02T03:43:09.831Z,14.50
2022-11-02T03:45:41.084Z,14.53
2022-11-02T03:48:15.007Z,14.47
2022-11-02T03:50:49.844Z,14.39
2022-11-02T03:53:24.516Z,14.35
2022-11-02T03:55:59.948Z,14.37
2022-11-02T03:58:32.550Z,14.39
2022-11-02T04:01:04.903Z,14.39
2022-11-02T04:03:37.927Z,14.32
2022-11-02T04:06:10.560Z,14.26
2022-11-02T04:08:41.366Z,14.25
2022-11-02T04:11:31.106Z,14.21
2022-11-02T04:14:20.913Z,14.20
2022-11-02T04:17:13.763Z,14.18
2022-11-02T04:19:49.640Z,14.14
2022-11-02T04:22:39.729Z,14.11
2022-11-02T04:25:21.997Z,14.08
2022-11-02T04:27:54.879Z,14.01
2022-11-02T04:30:27.251Z,13.93
2022-11-02T04:33:17.636Z,13.84
2022-11-02T04:35:49.810Z,13.74
2022-11-02T04:38:39.272Z,13.71
2022-11-02T04:41:29.731Z,13.70
2022-11-02T04:44:01.993Z,13.71
2022-11-02T04:46:35.331Z,13.73
2022-11-02T04:49:08.239Z,13.74
2022-11-02T04:51:45.725Z,13.74
2022-11-02T04:54:21.040Z,13.73
2022-11-02T04:56:53.341Z,13.70
2022-11-02T04:59:25.483Z,13.68
2022-11-02T05:01:57.868Z,13.65
2022-11-02T05:04:30.443Z,13.69
2022-11-02T05:07:06.399Z,13.73
2022-11-02T05:09:38.517Z,13.72
2022-11-02T05:12:10.989Z,13.72
2022-11-02T05:14:41.532Z,13.74
2022-11-02T05:17:14.707Z,13.73
2022-11-02T05:19:47.228Z,13.74
2022-11-02T05:22:17.671Z,13.71
2022-11-02T05:24:49.817Z,13.61
2022-11-02T05:27:22.364Z,13.61
2022-11-02T05:29:54.457Z,13.62
2022-11-02T05:32:26.655Z,13.65
2022-11-02T05:34:58.724Z,13.64
2022-11-02T05:37:30.845Z,13.56
2022-11-02T05:40:03.025Z,13.57
2022-11-02T05:42:35.138Z,13.61
2022-11-02T05:45:08.071Z,13.60
2022-11-02T05:47:40.135Z,13.56
2022-11-02T05:50:12.545Z,13.53
2022-11-02T05:52:44.634Z,13.48
2022-11-02T05:55:17.074Z,13.48
2022-11-02T05:57:53.697Z,13.53
2022-11-02T06:00:26.336Z,13.54
2022-11-02T06:03:01.693Z,13.59
2022-11-02T06:05:34.210Z,13.65
2022-11-02T06:08:06.714Z,13.68
2022-11-02T06:10:42.536Z,13.68
2022-11-02T06:13:14.677Z,13.67
2022-11-02T06:15:46.809Z,13.71
2022-11-02T06:18:19.024Z,13.73
2022-11-02T06:20:52.044Z,13.72
2022-11-02T06:23:24.607Z,13.71
2022-11-02T06:25:55.264Z,13.72
2022-11-02T06:28:28.075Z,13.72
2022-11-02T06:31:00.436Z,13.74
2022-11-02T06:33:32.775Z,13.75
2022-11-02T06:36:05.952Z,13.78
2022-11-02T06:38:38.703Z,13.82
2022-11-02T06:41:09.261Z,13.89
2022-11-02T06:43:41.596Z,13.95
2022-11-02T06:46:14.124Z,14.05
2022-11-02T06:48:47.638Z,14.12
2022-11-02T06:51:20.034Z,14.18
2022-11-02T06:53:52.125Z,14.25
2022-11-02T06:56:24.313Z,14.34
2022-11-02T06:58:56.482Z,14.39
2022-11-02T07:01:28.308Z,14.45
2022-11-02T07:04:01.796Z,14.51
2022-11-02T07:06:35.062Z,14.60
2022-11-02T07:09:08.817Z,14.68
2022-11-02T07:11:42.123Z,14.77
2022-11-02T07:14:15.814Z,14.84
2022-11-02T07:16:49.512Z,14.94
2022-11-02T07:19:23.787Z,15.02
2022-11-02T07:21:56.228Z,15.07
2022-11-02T07:24:31.010Z,15.11
2022-11-02T07:27:04.458Z,15.18
2022-11-02T07:29:37.821Z,15.25
2022-11-02T07:32:11.085Z,15.32
2022-11-02T07:34:44.164Z,15.39
2022-11-02T07:37:17.563Z,15.46
2022-11-02T07:39:51.824Z,15.54
2022-11-02T07:42:25.089Z,15.62
2022-11-02T07:45:01.034Z,15.70
2022-11-02T07:47:34.591Z,15.78
2022-11-02T07:50:09.785Z,15.86
2022-11-02T07:52:49.196Z,15.96
2022-11-02T07:55:25.044Z,16.06
2022-11-02T07:57:59.586Z,16.16
2022-11-02T08:00:35.072Z,16.28
2022-11-02T08:09:47.109Z,16.67
2022-11-02T08:12:19.563Z,16.77
2022-11-02T08:14:50.089Z,16.87
2022-11-02T08:17:23.000Z,16.95
2022-11-02T08:19:55.237Z,17.07
2022-11-02T08:22:27.546Z,17.18
2022-11-02T08:24:59.723Z,17.29
2022-11-02T08:27:32.010Z,17.41
2022-11-02T08:30:04.390Z,17.53
2022-11-02T08:32:36.620Z,17.66
2022-11-02T08:35:10.000Z,17.76
2022-11-02T08:37:42.305Z,17.87
2022-11-02T08:40:15.855Z,17.98
2022-11-02T08:42:48.048Z,18.10
2022-11-02T08:45:20.272Z,18.20
2022-11-02T08:47:52.494Z,18.30
2022-11-02T08:50:24.965Z,18.40
2022-11-02T08:52:57.483Z,18.50
2022-11-02T08:55:29.815Z,18.62
2022-11-02T08:58:02.877Z,18.74
2022-11-02T09:00:36.353Z,18.87
2022-11-02T09:03:09.749Z,19.00
2022-11-02T09:05:43.544Z,19.10
2022-11-02T09:08:17.464Z,19.19
2022-11-02T09:10:51.063Z,19.28
2022-11-02T09:13:25.921Z,19.37
2022-11-02T09:15:59.450Z,19.45
2022-11-02T09:18:31.963Z,19.51
2022-11-02T09:21:03.976Z,19.59
2022-11-02T09:26:03.714Z,19.81
2022-11-02T09:28:35.683Z,19.92
2022-11-02T09:31:10.795Z,20.06
2022-11-02T09:33:44.113Z,20.23
2022-11-02T09:36:16.374Z,20.40
2022-11-02T09:38:49.384Z,20.62
2022-11-02T09:41:26.970Z,20.88
2022-11-02T09:44:03.483Z,21.18
2022-11-02T09:46:40.124Z,21.54
2022-11-02T09:49:16.639Z,21.90
2022-11-02T09:51:50.259Z,22.29
2022-11-02T09:54:26.722Z,22.69
2022-11-02T09:57:02.287Z,23.10
2022-11-02T09:59:34.652Z,23.48
2022-11-02T10:02:06.582Z,23.85
2022-11-02T10:05:11.424Z,24.13
2022-11-02T10:07:58.163Z,24.59
2022-11-02T10:10:35.380Z,24.94
2022-11-02T10:13:17.388Z,25.24
2022-11-02T10:15:53.815Z,25.54
2022-11-02T10:18:28.238Z,25.81
2022-11-02T10:21:02.056Z,26.08
2022-11-02T10:23:38.100Z,26.33
2022-11-02T10:26:14.491Z,26.61
2022-11-02T10:28:49.936Z,26.91
2022-11-02T10:31:30.709Z,27.10
2022-11-02T10:34:12.571Z,27.13
2022-11-02T10:36:51.154Z,27.22
2022-11-02T10:39:29.871Z,27.42
2022-11-02T10:42:18.478Z,27.61
2022-11-02T10:45:15.834Z,27.74
2022-11-02T10:47:59.711Z,27.82
2022-11-02T10:50:46.566Z,27.89
2022-11-02T10:53:40.113Z,28.02
2022-11-02T10:56:17.794Z,27.98
2022-11-02T10:58:56.134Z,27.85
2022-11-02T11:01:29.107Z,27.79
2022-11-02T11:04:03.529Z,27.79
2022-11-02T11:06:39.347Z,27.74
2022-11-02T11:09:19.079Z,27.77
2022-11-02T11:11:59.963Z,27.79
2022-11-02T11:20:35.859Z,28.00
2022-11-02T11:23:23.141Z,28.15
2022-11-02T11:26:01.345Z,28.41
2022-11-02T11:28:40.421Z,28.60
2022-11-02T11:31:16.076Z,28.64
2022-11-02T11:33:50.977Z,28.65
2022-11-02T11:36:31.603Z,28.78
2022-11-02T11:39:05.801Z,28.97
2022-11-02T11:41:42.858Z,29.22
2022-11-02T11:44:16.524Z,29.41
2022-11-02T11:46:50.279Z,29.48
2022-11-02T11:49:41.526Z,29.67
2022-11-02T11:52:27.017Z,29.91
2022-11-02T11:55:03.380Z,30.15
2022-11-02T12:00:30.361Z,30.48
2022-11-02T12:03:11.124Z,30.57
2022-11-02T12:05:56.181Z,30.58
2022-11-02T12:08:42.432Z,30.72
2022-11-02T12:11:35.128Z,30.78
2022-11-02T12:14:18.138Z,30.83
2022-11-02T12:17:17.540Z,30.89
2022-11-02T12:20:01.953Z,30.95
2022-11-02T12:22:39.130Z,30.96
2022-11-02T12:25:21.266Z,30.99
2022-11-02T12:27:58.936Z,31.11
2022-11-02T12:30:34.989Z,31.18
2022-11-02T12:33:18.739Z,31.20
2022-11-02T12:36:06.159Z,31.14
2022-11-02T12:38:47.839Z,30.94
2022-11-02T12:41:36.765Z,30.78
2022-11-02T12:44:20.904Z,30.80
2022-11-02T12:47:00.707Z,30.90
2022-11-02T12:49:46.587Z,30.96
2022-11-02T12:52:30.745Z,30.99
2022-11-02T12:55:05.395Z,30.98
2022-11-02T12:57:39.514Z,31.01
2022-11-02T13:00:19.925Z,31.04
2022-11-02T13:02:59.307Z,31.07
2022-11-02T13:05:34.646Z,31.02
2022-11-02T13:08:13.479Z,31.01
2022-11-02T13:10:53.332Z,31.04
2022-11-02T13:13:31.237Z,31.03
2022-11-02T13:16:04.219Z,30.98
2022-11-02T13:18:39.572Z,30.92
2022-11-02T13:21:14.599Z,30.70
2022-11-02T13:23:51.168Z,30.49
2022-11-02T13:26:30.456Z,30.38
2022-11-02T13:29:06.969Z,30.23
2022-11-02T13:31:41.648Z,30.06
2022-11-02T13:34:17.478Z,29.88
2022-11-02T13:36:49.807Z,29.70
2022-11-02T13:39:27.678Z,29.55
2022-11-02T13:42:28.699Z,29.42
2022-11-02T13:45:17.889Z,29.25
2022-11-02T13:48:30.603Z,28.97
2022-11-02T13:51:07.136Z,28.75
2022-11-02T13:53:41.452Z,28.57
2022-11-02T13:56:22.236Z,28.44
2022-11-02T13:59:00.821Z,28.33
2022-11-02T14:01:36.630Z,28.21
2022-11-02T14:04:11.425Z,28.08
2022-11-02T14:06:50.106Z,27.90
2022-11-02T14:09:28.397Z,27.73
2022-11-02T14:12:40.941Z,27.59
2022-11-02T14:15:49.880Z,27.40
2022-11-02T14:18:33.519Z,27.29
2022-11-02T14:21:32.463Z,27.19
2022-11-02T14:24:09.861Z,27.06
2022-11-02T14:26:57.162Z,26.96
2022-11-02T14:29:52.236Z,26.87
2022-11-02T14:32:34.867Z,26.77
2022-11-02T14:35:18.346Z,26.66
2022-11-02T14:38:12.627Z,26.56
2022-11-02T14:40:55.525Z,26.43
2022-11-02T14:43:51.364Z,26.26
2022-11-02T14:46:37.223Z,26.09
2022-11-02T14:49:20.184Z,25.89
2022-11-02T14:52:04.293Z,25.70
2022-11-02T14:54:47.571Z,25.49
2022-11-02T14:57:24.497Z,25.34
2022-11-02T14:59:58.996Z,25.18
2022-11-02T15:02:37.349Z,25.03
2022-11-02T15:05:27.795Z,24.91
2022-11-02T15:08:02.457Z,24.78
2022-11-02T15:10:41.994Z,24.68
2022-11-02T15:13:36.209Z,24.57
2022-11-02T15:16:26.477Z,24.43
2022-11-02T15:19:47.581Z,24.28
2022-11-02T15:22:41.024Z,24.11
2022-11-02T15:25:17.331Z,23.98
2022-11-02T15:27:50.191Z,23.83
2022-11-02T15:30:28.388Z,23.66
2022-11-02T15:33:05.357Z,23.48
2022-11-02T15:35:39.970Z,23.34
2022-11-02T15:38:18.193Z,23.21
2022-11-02T15:41:00.847Z,23.08
2022-11-02T15:43:49.533Z,22.97
2022-11-02T15:46:33.417Z,22.85
2022-11-02T15:49:15.956Z,22.71
2022-11-02T15:51:54.480Z,22.54
2022-11-02T15:54:43.435Z,22.36
2022-11-02T15:57:25.499Z,22.20
2022-11-02T16:00:11.191Z,22.07
2022-11-02T16:02:45.027Z,21.96
2022-11-02T16:05:22.362Z,21.89
2022-11-02T16:08:10.564Z,21.81
2022-11-02T16:10:43.406Z,21.73
2022-11-02T16:13:18.271Z,21.66
2022-11-02T16:15:51.261Z,21.59
2022-11-02T16:18:31.269Z,21.50
2022-11-02T16:21:06.771Z,21.43
2022-11-02T16:23:41.140Z,21.37
2022-11-02T16:26:19.941Z,21.31
2022-11-02T16:28:54.258Z,21.25
2022-11-02T16:31:31.308Z,21.19
2022-11-02T16:34:05.156Z,21.14
2022-11-02T16:36:38.751Z,21.09
2022-11-02T16:39:20.457Z,21.04
2022-11-02T16:41:55.814Z,20.97
2022-11-02T16:44:30.023Z,20.92
2022-11-02T16:47:16.929Z,20.85
2022-11-02T16:50:01.818Z,20.78
2022-11-02T16:52:36.274Z,20.72
2022-11-02T16:55:36.322Z,20.68
2022-11-02T16:58:10.336Z,20.58
2022-11-02T17:00:42.649Z,20.51
2022-11-02T17:10:38.793Z,20.40
2022-11-02T17:13:21.911Z,20.31
2022-11-02T17:15:56.921Z,20.23
2022-11-02T17:18:31.077Z,20.15
2022-11-02T17:21:27.393Z,20.10
2022-11-02T17:24:00.929Z,20.01
2022-11-02T17:26:40.835Z,19.94
2022-11-02T17:29:36.345Z,19.86
2022-11-02T17:32:16.738Z,19.80
2022-11-02T17:34:55.998Z,19.75
2022-11-02T17:37:30.831Z,19.71
2022-11-02T17:40:04.871Z,19.65
2022-11-02T17:42:56.139Z,19.58
2022-11-02T17:45:30.180Z,19.53
2022-11-02T17:48:03.377Z,19.48
2022-11-02T17:50:37.664Z,19.43
2022-11-02T17:53:14.492Z,19.40
2022-11-02T17:55:46.662Z,19.40
2022-11-02T17:58:18.889Z,19.41
2022-11-02T18:00:49.706Z,19.39
2022-11-02T18:03:25.525Z,19.36
2022-11-02T18:06:00.611Z,19.34
2022-11-02T18:08:56.387Z,19.33
2022-11-02T18:11:28.558Z,19.32
2022-11-02T18:14:00.922Z,19.31
2022-11-02T18:16:32.186Z,19.28
2022-11-02T18:19:04.404Z,19.25
2022-11-02T18:21:36.617Z,19.24
2022-11-02T18:24:09.540Z,19.20
2022-11-02T18:26:44.259Z,19.18
2022-11-02T18:29:19.258Z,19.13
2022-11-02T18:31:51.655Z,19.08
2022-11-02T18:34:24.015Z,19.05
2022-11-02T18:36:56.144Z,19.04
2022-11-02T18:39:28.399Z,19.04
2022-11-02T18:42:00.659Z,19.03
2022-11-02T18:44:33.034Z,19.03
2022-11-02T18:47:05.155Z,19.00
2022-11-02T18:49:37.372Z,18.97
2022-11-02T18:52:08.111Z,18.94
2022-11-02T18:54:40.335Z,18.87
2022-11-02T18:57:12.571Z,18.86
2022-11-02T18:59:44.815Z,18.85
2022-11-02T19:02:17.233Z,18.84
2022-11-02T19:04:49.717Z,18.86
2022-11-02T19:07:37.999Z,18.88
2022-11-02T19:10:11.075Z,18.84
2022-11-02T19:12:43.295Z,18.81
2022-11-02T19:15:15.540Z,18.81
2022-11-02T19:17:47.804Z,18.81
2022-11-02T19:20:21.168Z,18.80
2022-11-02T19:22:57.528Z,18.82
2022-11-02T19:25:29.979Z,18.82
2022-11-02T19:28:04.656Z,18.76
2022-11-02T19:30:40.034Z,18.72
2022-11-02T19:33:12.219Z,18.73
2022-11-02T19:35:44.386Z,18.74
2022-11-02T19:38:16.623Z,18.72
2022-11-02T19:40:48.825Z,18.73
2022-11-02T19:43:21.058Z,18.74
2022-11-02T19:45:53.261Z,18.72
2022-11-02T19:48:25.566Z,18.71
2022-11-02T19:50:57.736Z,18.71
2022-11-02T19:53:29.901Z,18.69
2022-11-02T19:56:02.101Z,18.67
2022-11-02T19:58:34.418Z,18.66
2022-11-02T20:01:11.840Z,18.66
2022-11-02T20:03:44.551Z,18.62
2022-11-02T20:06:18.846Z,18.61
2022-11-02T20:08:53.520Z,18.60
2022-11-02T20:11:27.539Z,18.57
2022-11-02T20:14:01.097Z,18.54
2022-11-02T20:16:33.428Z,18.49
2022-11-02T20:19:06.717Z,18.36
2022-11-02T20:21:42.959Z,18.25
2022-11-02T20:24:16.487Z,18.15
2022-11-02T20:26:48.665Z,18.10
2022-11-02T20:29:20.780Z,18.07
2022-11-02T20:31:53.033Z,18.03
2022-11-02T20:34:25.212Z,18.02
2022-11-02T20:36:56.011Z,18.02
2022-11-02T20:39:28.256Z,17.99
2022-11-02T20:42:00.499Z,17.99
2022-11-02T20:44:32.811Z,17.97
2022-11-02T20:47:05.057Z,17.96
2022-11-02T20:49:50.147Z,17.96
2022-11-02T20:52:23.236Z,17.96
2022-11-02T20:54:54.045Z,17.92
2022-11-02T20:57:28.367Z,17.88
2022-11-02T21:00:00.632Z,17.86
2022-11-02T21:02:32.951Z,17.81
2022-11-02T21:05:05.282Z,17.75
2022-11-02T21:07:37.480Z,17.69
2022-11-02T21:10:11.836Z,17.67
2022-11-02T21:13:01.318Z,17.68
2022-11-02T21:15:35.479Z,17.68
2022-11-02T21:18:07.909Z,17.64
2022-11-02T21:20:38.498Z,17.58
2022-11-02T21:23:10.719Z,17.50
2022-11-02T21:25:42.979Z,17.44
2022-11-02T21:28:15.210Z,17.38
2022-11-02T21:30:48.601Z,17.31
2022-11-02T21:33:20.767Z,17.25
2022-11-02T21:35:55.043Z,17.22
2022-11-02T21:38:28.149Z,17.20
2022-11-02T21:41:03.366Z,17.16
2022-11-02T21:43:38.464Z,17.12
2022-11-02T21:46:10.619Z,17.10
2022-11-02T21:48:42.863Z,17.09
2022-11-02T21:51:16.323Z,17.10
2022-11-02T21:53:49.348Z,17.09
2022-11-02T21:56:22.558Z,17.09
2022-11-02T21:58:58.863Z,17.11
2022-11-02T22:01:49.338Z,17.13
2022-11-02T22:04:25.526Z,17.17
2022-11-02T22:06:58.501Z,17.20
2022-11-02T22:09:31.107Z,17.22
2022-11-02T22:12:20.918Z,17.23
2022-11-02T22:14:53.162Z,17.26
2022-11-02T22:17:48.641Z,17.29
2022-11-02T22:20:18.736Z,17.30
2022-11-02T22:22:51.033Z,17.33
2022-11-02T22:25:23.546Z,17.35
2022-11-02T22:27:54.366Z,17.33
2022-11-02T22:30:29.472Z,17.29
2022-11-02T22:33:01.596Z,17.28
2022-11-02T22:35:33.822Z,17.27
2022-11-02T22:38:23.337Z,17.28
2022-11-02T22:41:01.837Z,17.29
2022-11-02T22:43:34.062Z,17.30
2022-11-02T22:46:07.993Z,17.31
2022-11-02T22:48:40.159Z,17.32
2022-11-02T22:51:13.083Z,17.33
2022-11-02T22:53:45.275Z,17.33
2022-11-02T22:56:18.964Z,17.35
2022-11-02T22:58:52.083Z,17.37
2022-11-02T23:01:25.990Z,17.38
2022-11-02T23:03:58.598Z,17.40
2022-11-02T23:06:30.940Z,17.42
2022-11-02T23:09:03.251Z,17.44
2022-11-02T23:11:37.426Z,17.44
2022-11-02T23:14:11.440Z,17.46
2022-11-02T23:16:46.891Z,17.45
2022-11-02T23:19:30.840Z,17.43
2022-11-02T23:22:22.312Z,17.43
2022-11-02T23:25:15.324Z,17.42
2022-11-02T23:28:06.708Z,17.40
2022-11-02T23:30:57.509Z,17.39
2022-11-02T23:33:32.397Z,17.38
2022-11-02T23:36:15.820Z,17.37
2022-11-02T23:39:06.070Z,17.36
2022-11-02T23:41:39.168Z,17.35
2022-11-02T23:44:14.603Z,17.33
2022-11-02T23:46:48.722Z,17.30
2022-11-02T23:49:21.177Z,17.25
2022-11-02T23:52:09.270Z,17.22
2022-11-02T23:54:59.095Z,17.17
2022-11-02T23:57:32.022Z,17.13
